createdAt,value
2022-12-18T00:09:40.027Z,67.90
2022-12-18T00:19:43.429Z,67.70
2022-12-18T00:29:48.003Z,68.35
2022-12-18T00:39:52.185Z,70.49
2022-12-18T00:49:57.824Z,69.17
2022-12-18T01:00:00.882Z,68.48
2022-12-18T01:10:06.853Z,68.97
2022-12-18T01:20:14.283Z,68.03
2022-12-18T01:30:19.119Z,68.95
2022-12-18T01:40:22.152Z,69.73
2022-12-18T01:50:34.907Z,69.64
2022-12-18T02:00:38.032Z,71.21
2022-12-18T02:10:50.700Z,72.75
2022-12-18T02:21:07.041Z,72.70
2022-12-18T02:31:16.456Z,73.40
2022-12-18T02:41:20.931Z,73.90
2022-12-18T02:51:31.686Z,72.85
2022-12-18T03:01:45.319Z,73.38
2022-12-18T03:12:14.411Z,73.38
2022-12-18T03:22:18.494Z,72.77
2022-12-18T03:32:31.850Z,72.81
2022-12-18T03:42:46.068Z,72.82
2022-12-18T03:52:57.143Z,73.14
2022-12-18T04:03:02.937Z,72.45
2022-12-18T04:13:13.803Z,73.14
2022-12-18T04:23:17.659Z,73.96
2022-12-18T04:33:22.163Z,73.87
2022-12-18T04:43:25.309Z,73.96
2022-12-18T04:53:29.841Z,73.89
2022-12-18T05:03:33.418Z,73.92
2022-12-18T05:13:40.145Z,74.40
2022-12-18T05:23:43.616Z,74.96
2022-12-18T05:33:48.112Z,75.04
2022-12-18T05:43:51.252Z,74.66
2022-12-18T05:53:55.627Z,74.91
2022-12-18T06:03:58.599Z,74.21
2022-12-18T06:14:04.403Z,73.91
2022-12-18T06:24:08.217Z,74.96
2022-12-18T06:34:12.547Z,75.25
2022-12-18T06:44:15.623Z,75.06
2022-12-18T06:54:20.016Z,75.49
2022-12-18T07:04:23.032Z,74.91
2022-12-18T07:14:27.692Z,74.75
2022-12-18T07:24:30.747Z,75.54
2022-12-18T07:34:35.170Z,74.62
2022-12-18T07:44:38.600Z,75.36
2022-12-18T07:54:43.552Z,75.05
2022-12-18T08:04:46.547Z,76.12
2022-12-18T08:14:50.833Z,75.37
2022-12-18T08:24:54.075Z,75.75
2022-12-18T08:34:58.484Z,75.07
2022-12-18T08:45:01.404Z,75.45
2022-12-18T08:55:06.931Z,75.10
2022-12-18T09:05:10.962Z,74.46
2022-12-18T09:37:52.628Z,73.58
2022-12-18T09:47:58.346Z,73.94
2022-12-18T09:58:08.809Z,73.45
2022-12-18T10:08:19.472Z,73.07
2022-12-18T10:18:27.742Z,73.29
2022-12-18T10:28:32.672Z,72.94
2022-12-18T10:38:36.967Z,71.69
2022-12-18T10:48:49.513Z,71.53
2022-12-18T10:59:01.648Z,71.66
2022-12-18T11:09:13.177Z,71.17
2022-12-18T11:19:39.318Z,70.41
2022-12-18T11:29:46.551Z,70.24
2022-12-18T11:39:59.304Z,70.64
2022-12-18T11:50:13.362Z,70.07
2022-12-18T12:00:20.875Z,71.05
2022-12-18T12:10:38.379Z,71.07
2022-12-18T12:20:52.650Z,71.65
2022-12-18T12:31:09.670Z,70.83
2022-12-18T12:41:31.284Z,71.45
2022-12-18T12:51:38.077Z,71.41
2022-12-18T13:01:55.824Z,70.69
2022-12-18T13:12:22.358Z,71.25
2022-12-18T13:22:38.027Z,70.45
2022-12-18T13:32:41.046Z,70.23
2022-12-18T13:43:03.187Z,70.20
2022-12-18T13:53:07.500Z,69.49
2022-12-18T14:03:22.544Z,72.24
2022-12-18T14:13:30.087Z,71.57
2022-12-18T14:23:36.695Z,71.28
2022-12-18T14:33:40.677Z,70.72
2022-12-18T14:43:46.851Z,70.79
2022-12-18T14:53:54.834Z,70.66
2022-12-18T15:04:01.201Z,70.35
2022-12-18T15:14:33.909Z,70.52
2022-12-18T15:24:38.354Z,70.06
2022-12-18T15:34:41.446Z,70.61
2022-12-18T15:44:45.908Z,71.16
2022-12-18T15:55:06.673Z,70.98
2022-12-18T16:05:18.085Z,70.92
2022-12-18T16:15:24.444Z,71.16
2022-12-18T16:25:30.444Z,71.75
2022-12-18T16:35:33.442Z,72.51
2022-12-18T16:45:37.464Z,72.53
2022-12-18T16:55:40.417Z,73.48
2022-12-18T17:05:48.744Z,73.58
2022-12-18T17:15:54.556Z,73.08
2022-12-18T17:26:01.121Z,73.46
2022-12-18T17:36:04.438Z,73.79
2022-12-18T17:46:09.137Z,73.76
2022-12-18T17:56:15.605Z,74.13
2022-12-18T18:06:20.142Z,73.85
2022-12-18T18:16:23.156Z,74.11
2022-12-18T18:26:29.312Z,74.43
2022-12-18T18:36:32.895Z,74.09
2022-12-18T18:46:37.247Z,74.18
2022-12-18T18:57:11.779Z,73.71
2022-12-18T19:07:04.359Z,73.90
2022-12-18T19:17:07.440Z,73.97
2022-12-18T19:27:12.024Z,74.04
2022-12-18T19:37:15.092Z,73.67
2022-12-18T19:47:20.564Z,74.17
2022-12-18T19:57:23.804Z,73.82
2022-12-18T20:07:28.048Z,74.56
2022-12-18T20:17:30.867Z,74.81
2022-12-18T20:27:36.168Z,74.66
2022-12-18T20:37:39.322Z,74.80
2022-12-18T20:47:47.497Z,74.07
2022-12-18T20:57:52.830Z,74.42
2022-12-18T21:07:57.383Z,75.17
2022-12-18T21:18:00.383Z,76.33
2022-12-18T21:28:05.149Z,77.25
2022-12-18T21:38:09.167Z,78.09
2022-12-18T21:48:13.596Z,80.51
2022-12-18T21:58:16.653Z,81.22
2022-12-18T22:08:20.935Z,81.92
2022-12-18T22:18:24.052Z,82.60
2022-12-18T22:28:45.843Z,82.81
2022-12-18T22:38:48.947Z,82.91
2022-12-18T22:48:53.673Z,82.92
2022-12-18T22:58:57.155Z,83.04
2022-12-18T23:09:02.695Z,82.45
2022-12-18T23:19:05.740Z,81.66
2022-12-18T23:29:10.585Z,82.34
2022-12-18T23:39:19.255Z,83.04
2022-12-18T23:49:34.187Z,84.12
2022-12-18T23:59:37.197Z,85.57
